sensor_id;sensor_type;location;lat;lon;timestamp;pressure;altitude;pressure_sealevel;temperature;humidity
75521;BME280;64102;48.628;9.002;2023-04-09T00:00:24;96713.69;;;3.70;93.39
75521;BME280;64102;48.628;9.002;2023-04-09T00:02:49;96710.16;;;3.56;93.94
75521;BME280;64102;48.628;9.002;2023-04-09T00:05:14;96710.53;;;3.49;94.81
75521;BME280;64102;48.628;9.002;2023-04-09T00:07:40;96711.53;;;3.46;94.80
75521;BME280;64102;48.628;9.002;2023-04-09T00:10:06;96706.66;;;3.42;95.73
75521;BME280;64102;48.628;9.002;2023-04-09T00:12:31;96706.13;;;3.52;96.04
75521;BME280;64102;48.628;9.002;2023-04-09T00:14:57;96711.22;;;3.52;95.81
75521;BME280;64102;48.628;9.002;2023-04-09T00:17:22;96707.25;;;3.47;95.52
75521;BME280;64102;48.628;9.002;2023-04-09T00:19:47;96702.47;;;3.41;95.74
75521;BME280;64102;48.628;9.002;2023-04-09T00:22:13;96706.91;;;3.37;96.39
75521;BME280;64102;48.628;9.002;2023-04-09T00:24:39;96700.16;;;3.36;96.58
75521;BME280;64102;48.628;9.002;2023-04-09T00:27:04;96698.50;;;3.35;97.07
75521;BME280;64102;48.628;9.002;2023-04-09T00:29:30;96700.16;;;3.36;96.35
75521;BME280;64102;48.628;9.002;2023-04-09T00:31:55;96699.59;;;3.47;96.75
75521;BME280;64102;48.628;9.002;2023-04-09T00:34:20;96696.91;;;3.66;96.05
75521;BME280;64102;48.628;9.002;2023-04-09T00:36:46;96694.66;;;3.75;94.63
75521;BME280;64102;48.628;9.002;2023-04-09T00:39:11;96687.94;;;3.74;95.26
75521;BME280;64102;48.628;9.002;2023-04-09T00:41:36;96684.69;;;3.71;95.46
75521;BME280;64102;48.628;9.002;2023-04-09T00:44:02;96688.59;;;3.78;95.28
75521;BME280;64102;48.628;9.002;2023-04-09T00:46:27;96687.09;;;3.89;93.90
75521;BME280;64102;48.628;9.002;2023-04-09T00:48:53;96687.03;;;3.91;94.11
75521;BME280;64102;48.628;9.002;2023-04-09T00:51:18;96683.97;;;4.00;92.44
75521;BME280;64102;48.628;9.002;2023-04-09T00:53:44;96690.16;;;3.96;92.77
75521;BME280;64102;48.628;9.002;2023-04-09T00:56:12;96682.09;;;3.88;93.90
75521;BME280;64102;48.628;9.002;2023-04-09T00:58:39;96682.25;;;3.85;93.95
75521;BME280;64102;48.628;9.002;2023-04-09T01:01:04;96684.06;;;3.83;94.06
75521;BME280;64102;48.628;9.002;2023-04-09T01:03:30;96684.38;;;3.77;95.23
75521;BME280;64102;48.628;9.002;2023-04-09T01:11:37;96684.22;;;3.64;96.31
75521;BME280;64102;48.628;9.002;2023-04-09T01:14:15;96688.50;;;3.64;96.29
75521;BME280;64102;48.628;9.002;2023-04-09T01:16:48;96689.16;;;3.67;96.21
75521;BME280;64102;48.628;9.002;2023-04-09T01:22:01;96688.50;;;3.95;94.08
75521;BME280;64102;48.628;9.002;2023-04-09T01:27:06;96687.34;;;3.85;94.67
75521;BME280;64102;48.628;9.002;2023-04-09T01:29:33;96688.03;;;3.88;94.49
75521;BME280;64102;48.628;9.002;2023-04-09T01:32:01;96690.47;;;3.90;94.61
75521;BME280;64102;48.628;9.002;2023-04-09T01:34:28;96685.88;;;3.96;94.59
75521;BME280;64102;48.628;9.002;2023-04-09T01:36:57;96684.16;;;3.97;93.64
75521;BME280;64102;48.628;9.002;2023-04-09T01:39:23;96689.06;;;4.00;94.34
75521;BME280;64102;48.628;9.002;2023-04-09T01:41:49;96687.50;;;3.97;93.51
75521;BME280;64102;48.628;9.002;2023-04-09T01:44:16;96689.31;;;3.95;94.25
75521;BME280;64102;48.628;9.002;2023-04-09T01:46:42;96687.66;;;3.94;94.25
75521;BME280;64102;48.628;9.002;2023-04-09T01:49:09;96691.94;;;3.94;94.28
75521;BME280;64102;48.628;9.002;2023-04-09T01:51:35;96687.66;;;3.94;94.71
75521;BME280;64102;48.628;9.002;2023-04-09T01:54:02;96687.84;;;3.91;94.74
75521;BME280;64102;48.628;9.002;2023-04-09T01:56:38;96684.28;;;3.94;94.64
75521;BME280;64102;48.628;9.002;2023-04-09T01:59:03;96685.72;;;3.84;94.23
75521;BME280;64102;48.628;9.002;2023-04-09T02:01:37;96689.06;;;3.84;94.67
75521;BME280;64102;48.628;9.002;2023-04-09T02:04:04;96687.44;;;3.83;95.00
75521;BME280;64102;48.628;9.002;2023-04-09T02:06:38;96684.47;;;3.75;95.51
75521;BME280;64102;48.628;9.002;2023-04-09T02:09:07;96685.78;;;3.82;96.00
75521;BME280;64102;48.628;9.002;2023-04-09T02:11:33;96691.47;;;3.87;94.92
75521;BME280;64102;48.628;9.002;2023-04-09T02:13:59;96688.16;;;3.85;95.63
75521;BME280;64102;48.628;9.002;2023-04-09T02:16:25;96689.41;;;3.78;95.67
75521;BME280;64102;48.628;9.002;2023-04-09T02:18:53;96678.63;;;3.73;96.36
75521;BME280;64102;48.628;9.002;2023-04-09T02:21:19;96684.69;;;3.71;96.36
75521;BME280;64102;48.628;9.002;2023-04-09T02:23:44;96672.63;;;3.74;95.96
75521;BME280;64102;48.628;9.002;2023-04-09T02:26:10;96685.28;;;3.76;96.79
75521;BME280;64102;48.628;9.002;2023-04-09T02:28:35;96678.38;;;3.78;95.96
75521;BME280;64102;48.628;9.002;2023-04-09T02:31:00;96680.19;;;3.76;96.14
75521;BME280;64102;48.628;9.002;2023-04-09T02:33:26;96686.34;;;3.72;96.07
75521;BME280;64102;48.628;9.002;2023-04-09T02:35:51;96671.81;;;3.74;96.64
75521;BME280;64102;48.628;9.002;2023-04-09T02:38:16;96675.06;;;3.76;95.98
75521;BME280;64102;48.628;9.002;2023-04-09T02:40:42;96679.47;;;3.74;96.26
75521;BME280;64102;48.628;9.002;2023-04-09T02:43:08;96683.56;;;3.76;96.18
75521;BME280;64102;48.628;9.002;2023-04-09T02:45:34;96685.13;;;3.79;95.95
75521;BME280;64102;48.628;9.002;2023-04-09T02:47:59;96688.59;;;3.78;95.63
75521;BME280;64102;48.628;9.002;2023-04-09T02:50:24;96682.25;;;3.69;96.54
75521;BME280;64102;48.628;9.002;2023-04-09T02:52:50;96677.47;;;3.63;96.14
75521;BME280;64102;48.628;9.002;2023-04-09T02:55:15;96679.69;;;3.69;96.63
75521;BME280;64102;48.628;9.002;2023-04-09T02:57:41;96674.81;;;3.80;96.01
75521;BME280;64102;48.628;9.002;2023-04-09T03:00:07;96680.63;;;3.84;95.62
75521;BME280;64102;48.628;9.002;2023-04-09T03:02:33;96672.19;;;3.82;95.61
75521;BME280;64102;48.628;9.002;2023-04-09T03:04:58;96676.16;;;3.72;96.01
75521;BME280;64102;48.628;9.002;2023-04-09T03:07:23;96673.44;;;3.75;96.12
75521;BME280;64102;48.628;9.002;2023-04-09T03:09:49;96671.22;;;3.69;95.91
75521;BME280;64102;48.628;9.002;2023-04-09T03:12:14;96663.97;;;3.61;96.06
75521;BME280;64102;48.628;9.002;2023-04-09T03:14:40;96665.84;;;3.57;97.20
75521;BME280;64102;48.628;9.002;2023-04-09T03:17:05;96666.03;;;3.54;97.22
75521;BME280;64102;48.628;9.002;2023-04-09T03:19:30;96662.00;;;3.50;97.39
75521;BME280;64102;48.628;9.002;2023-04-09T03:21:56;96661.81;;;3.53;97.49
75521;BME280;64102;48.628;9.002;2023-04-09T03:24:21;96667.75;;;3.54;97.79
75521;BME280;64102;48.628;9.002;2023-04-09T03:26:46;96669.06;;;3.45;98.30
75521;BME280;64102;48.628;9.002;2023-04-09T03:29:12;96665.44;;;3.49;98.65
75521;BME280;64102;48.628;9.002;2023-04-09T03:31:37;96656.72;;;3.38;98.50
75521;BME280;64102;48.628;9.002;2023-04-09T03:34:02;96658.16;;;3.26;98.85
75521;BME280;64102;48.628;9.002;2023-04-09T03:36:28;96660.63;;;3.12;98.80
75521;BME280;64102;48.628;9.002;2023-04-09T03:38:53;96663.72;;;3.01;99.49
75521;BME280;64102;48.628;9.002;2023-04-09T03:41:18;96654.06;;;2.91;99.88
75521;BME280;64102;48.628;9.002;2023-04-09T03:43:44;96661.94;;;2.86;100.00
75521;BME280;64102;48.628;9.002;2023-04-09T03:46:16;96654.63;;;2.80;100.00
75521;BME280;64102;48.628;9.002;2023-04-09T03:48:41;96653.78;;;2.80;100.00
75521;BME280;64102;48.628;9.002;2023-04-09T03:51:12;96652.75;;;2.84;100.00
75521;BME280;64102;48.628;9.002;2023-04-09T03:53:38;96659.78;;;2.79;100.00
75521;BME280;64102;48.628;9.002;2023-04-09T03:56:04;96652.31;;;2.76;100.00
75521;BME280;64102;48.628;9.002;2023-04-09T03:58:30;96662.50;;;2.76;100.00
75521;BME280;64102;48.628;9.002;2023-04-09T04:00:55;96661.13;;;2.86;100.00
75521;BME280;64102;48.628;9.002;2023-04-09T04:03:21;96656.38;;;2.95;100.00
75521;BME280;64102;48.628;9.002;2023-04-09T04:05:47;96661.72;;;2.91;100.00
75521;BME280;64102;48.628;9.002;2023-04-09T04:08:12;96655.25;;;3.01;99.95
75521;BME280;64102;48.628;9.002;2023-04-09T04:10:37;96661.94;;;3.03;99.13
75521;BME280;64102;48.628;9.002;2023-04-09T04:13:05;96657.41;;;3.08;99.09
75521;BME280;64102;48.628;9.002;2023-04-09T04:15:30;96664.50;;;3.19;98.17
75521;BME280;64102;48.628;9.002;2023-04-09T04:17:55;96665.75;;;3.28;97.62
75521;BME280;64102;48.628;9.002;2023-04-09T04:20:21;96675.59;;;3.18;98.47
75521;BME280;64102;48.628;9.002;2023-04-09T04:22:46;96670.50;;;3.18;98.44
75521;BME280;64102;48.628;9.002;2023-04-09T04:25:12;96663.25;;;3.26;98.38
75521;BME280;64102;48.628;9.002;2023-04-09T04:27:40;96666.56;;;3.28;98.67
75521;BME280;64102;48.628;9.002;2023-04-09T04:30:06;96662.97;;;3.32;98.05
75521;BME280;64102;48.628;9.002;2023-04-09T04:32:32;96674.06;;;3.31;97.70
75521;BME280;64102;48.628;9.002;2023-04-09T04:34:57;96665.97;;;3.23;97.80
75521;BME280;64102;48.628;9.002;2023-04-09T04:37:22;96672.22;;;3.17;98.25
75521;BME280;64102;48.628;9.002;2023-04-09T04:39:48;96673.44;;;3.10;98.69
75521;BME280;64102;48.628;9.002;2023-04-09T04:42:13;96669.34;;;3.08;98.78
75521;BME280;64102;48.628;9.002;2023-04-09T04:44:38;96674.69;;;3.03;99.07
75521;BME280;64102;48.628;9.002;2023-04-09T04:47:04;96675.56;;;3.02;99.44
75521;BME280;64102;48.628;9.002;2023-04-09T04:49:29;96676.41;;;3.03;99.10
75521;BME280;64102;48.628;9.002;2023-04-09T04:51:55;96678.00;;;3.21;99.37
75521;BME280;64102;48.628;9.002;2023-04-09T04:54:21;96674.22;;;3.28;99.63
75521;BME280;64102;48.628;9.002;2023-04-09T04:56:46;96679.91;;;3.33;98.94
75521;BME280;64102;48.628;9.002;2023-04-09T04:59:11;96677.53;;;3.46;99.10
75521;BME280;64102;48.628;9.002;2023-04-09T05:01:37;96678.28;;;3.48;98.47
75521;BME280;64102;48.628;9.002;2023-04-09T05:04:02;96683.72;;;3.42;98.38
75521;BME280;64102;48.628;9.002;2023-04-09T05:06:28;96684.19;;;3.33;99.54
75521;BME280;64102;48.628;9.002;2023-04-09T05:08:54;96680.97;;;3.29;99.16
75521;BME280;64102;48.628;9.002;2023-04-09T05:11:23;96682.03;;;3.25;100.00
75521;BME280;64102;48.628;9.002;2023-04-09T05:13:48;96682.94;;;3.24;100.00
75521;BME280;64102;48.628;9.002;2023-04-09T05:16:16;96685.41;;;3.26;99.78
75521;BME280;64102;48.628;9.002;2023-04-09T05:18:42;96686.06;;;3.29;100.00
75521;BME280;64102;48.628;9.002;2023-04-09T05:21:07;96686.66;;;3.34;100.00
75521;BME280;64102;48.628;9.002;2023-04-09T05:23:33;96676.94;;;3.41;100.00
75521;BME280;64102;48.628;9.002;2023-04-09T05:25:58;96687.19;;;3.56;99.29
75521;BME280;64102;48.628;9.002;2023-04-09T05:28:23;96694.09;;;3.54;99.20
75521;BME280;64102;48.628;9.002;2023-04-09T05:30:49;96687.19;;;3.56;98.40
75521;BME280;64102;48.628;9.002;2023-04-09T05:33:14;96689.00;;;3.54;98.58
75521;BME280;64102;48.628;9.002;2023-04-09T05:35:40;96684.88;;;3.52;98.04
75521;BME280;64102;48.628;9.002;2023-04-09T05:38:05;96684.28;;;3.47;97.95
75521;BME280;64102;48.628;9.002;2023-04-09T05:40:30;96686.44;;;3.54;98.14
75521;BME280;64102;48.628;9.002;2023-04-09T05:42:56;96681.16;;;3.57;98.11
75521;BME280;64102;48.628;9.002;2023-04-09T05:45:21;96684.03;;;3.67;98.34
75521;BME280;64102;48.628;9.002;2023-04-09T05:47:47;96687.34;;;3.85;97.30
75521;BME280;64102;48.628;9.002;2023-04-09T05:50:13;96685.63;;;4.01;96.62
75521;BME280;64102;48.628;9.002;2023-04-09T05:52:38;96677.22;;;4.29;95.18
75521;BME280;64102;48.628;9.002;2023-04-09T05:55:04;96678.75;;;4.47;92.66
75521;BME280;64102;48.628;9.002;2023-04-09T05:57:31;96682.63;;;4.54;91.95
75521;BME280;64102;48.628;9.002;2023-04-09T05:59:56;96684.56;;;4.65;91.16
75521;BME280;64102;48.628;9.002;2023-04-09T06:02:22;96680.00;;;4.70;90.81
75521;BME280;64102;48.628;9.002;2023-04-09T06:04:48;96682.22;;;4.76;91.54
75521;BME280;64102;48.628;9.002;2023-04-09T06:07:14;96683.41;;;4.84;91.31
75521;BME280;64102;48.628;9.002;2023-04-09T06:09:39;96677.84;;;4.92;91.48
75521;BME280;64102;48.628;9.002;2023-04-09T06:12:05;96679.59;;;5.06;90.60
75521;BME280;64102;48.628;9.002;2023-04-09T06:14:30;96682.72;;;5.53;87.25
75521;BME280;64102;48.628;9.002;2023-04-09T06:16:58;96672.22;;;6.65;85.15
75521;BME280;64102;48.628;9.002;2023-04-09T06:19:23;96667.75;;;8.28;75.87
75521;BME280;64102;48.628;9.002;2023-04-09T06:21:48;96682.00;;;9.59;69.65
75521;BME280;64102;48.628;9.002;2023-04-09T06:24:14;96673.00;;;10.19;67.48
75521;BME280;64102;48.628;9.002;2023-04-09T06:26:39;96667.13;;;10.81;66.26
75521;BME280;64102;48.628;9.002;2023-04-09T06:29:05;96670.84;;;11.59;63.51
75521;BME280;64102;48.628;9.002;2023-04-09T06:31:30;96670.44;;;12.04;61.81
75521;BME280;64102;48.628;9.002;2023-04-09T06:33:55;96665.06;;;12.36;60.58
75521;BME280;64102;48.628;9.002;2023-04-09T06:36:21;96671.19;;;12.54;59.31
75521;BME280;64102;48.628;9.002;2023-04-09T06:38:47;96667.63;;;12.55;58.75
75521;BME280;64102;48.628;9.002;2023-04-09T06:41:12;96668.84;;;12.89;58.44
75521;BME280;64102;48.628;9.002;2023-04-09T06:43:39;96672.78;;;13.13;57.27
75521;BME280;64102;48.628;9.002;2023-04-09T06:46:05;96684.69;;;12.57;57.59
75521;BME280;64102;48.628;9.002;2023-04-09T06:48:30;96685.03;;;12.24;58.25
75521;BME280;64102;48.628;9.002;2023-04-09T06:50:55;96694.06;;;12.39;60.53
75521;BME280;64102;48.628;9.002;2023-04-09T06:53:21;96685.88;;;12.34;57.90
75521;BME280;64102;48.628;9.002;2023-04-09T06:55:46;96694.47;;;12.73;56.04
75521;BME280;64102;48.628;9.002;2023-04-09T06:58:11;96694.75;;;12.70;56.50
75521;BME280;64102;48.628;9.002;2023-04-09T07:00:37;96694.88;;;12.88;56.38
75521;BME280;64102;48.628;9.002;2023-04-09T07:03:03;96692.47;;;13.52;55.20
75521;BME280;64102;48.628;9.002;2023-04-09T07:05:29;96699.03;;;13.47;53.38
75521;BME280;64102;48.628;9.002;2023-04-09T07:07:55;96695.06;;;13.52;53.58
75521;BME280;64102;48.628;9.002;2023-04-09T07:10:20;96690.38;;;13.19;53.55
75521;BME280;64102;48.628;9.002;2023-04-09T07:12:46;96696.94;;;12.55;56.21
75521;BME280;64102;48.628;9.002;2023-04-09T07:15:11;96697.69;;;12.08;58.10
75521;BME280;64102;48.628;9.002;2023-04-09T07:17:37;96703.13;;;11.44;60.36
75521;BME280;64102;48.628;9.002;2023-04-09T07:20:02;96696.59;;;11.40;59.13
75521;BME280;64102;48.628;9.002;2023-04-09T07:22:28;96705.13;;;10.26;65.03
75521;BME280;64102;48.628;9.002;2023-04-09T07:24:55;96704.91;;;10.82;63.28
75521;BME280;64102;48.628;9.002;2023-04-09T07:27:25;96711.28;;;10.46;61.98
75521;BME280;64102;48.628;9.002;2023-04-09T07:29:54;96711.75;;;10.71;64.23
75521;BME280;64102;48.628;9.002;2023-04-09T07:32:20;96712.47;;;12.84;57.10
75521;BME280;64102;48.628;9.002;2023-04-09T07:34:45;96712.78;;;13.94;53.40
75521;BME280;64102;48.628;9.002;2023-04-09T07:37:10;96712.25;;;13.53;50.07
75521;BME280;64102;48.628;9.002;2023-04-09T07:39:36;96708.38;;;12.82;56.26
75521;BME280;64102;48.628;9.002;2023-04-09T07:42:03;96713.56;;;11.63;57.59
75521;BME280;64102;48.628;9.002;2023-04-09T07:44:32;96714.03;;;12.08;56.21
75521;BME280;64102;48.628;9.002;2023-04-09T07:46:57;96710.75;;;14.42;50.75
75521;BME280;64102;48.628;9.002;2023-04-09T07:49:23;96714.56;;;14.65;49.62
75521;BME280;64102;48.628;9.002;2023-04-09T07:51:48;96711.06;;;15.87;45.73
75521;BME280;64102;48.628;9.002;2023-04-09T07:54:13;96713.28;;;15.74;42.58
75521;BME280;64102;48.628;9.002;2023-04-09T07:56:39;96709.38;;;14.65;44.11
75521;BME280;64102;48.628;9.002;2023-04-09T07:59:04;96706.03;;;14.73;44.31
75521;BME280;64102;48.628;9.002;2023-04-09T08:01:30;96703.16;;;16.47;40.79
75521;BME280;64102;48.628;9.002;2023-04-09T08:03:55;96708.19;;;16.48;42.05
75521;BME280;64102;48.628;9.002;2023-04-09T08:06:21;96705.09;;;16.53;40.50
75521;BME280;64102;48.628;9.002;2023-04-09T08:08:46;96692.63;;;16.89;40.50
75521;BME280;64102;48.628;9.002;2023-04-09T08:11:11;96711.53;;;16.91;40.78
75521;BME280;64102;48.628;9.002;2023-04-09T08:13:37;96712.19;;;17.09;40.05
75521;BME280;64102;48.628;9.002;2023-04-09T08:16:02;96707.78;;;17.26;41.08
75521;BME280;64102;48.628;9.002;2023-04-09T08:18:28;96709.41;;;15.78;36.01
75521;BME280;64102;48.628;9.002;2023-04-09T08:20:55;96704.88;;;17.05;40.46
75521;BME280;64102;48.628;9.002;2023-04-09T08:23:21;96715.22;;;18.24;37.86
75521;BME280;64102;48.628;9.002;2023-04-09T08:25:46;96715.31;;;14.93;39.57
75521;BME280;64102;48.628;9.002;2023-04-09T08:28:11;96713.19;;;15.14;38.06
75521;BME280;64102;48.628;9.002;2023-04-09T08:30:37;96727.75;;;12.78;42.39
75521;BME280;64102;48.628;9.002;2023-04-09T08:33:03;96732.00;;;10.87;47.17
75521;BME280;64102;48.628;9.002;2023-04-09T08:35:31;96733.16;;;11.15;53.73
75521;BME280;64102;48.628;9.002;2023-04-09T08:37:58;96733.38;;;10.27;52.60
75521;BME280;64102;48.628;9.002;2023-04-09T08:40:23;96730.69;;;9.51;54.42
75521;BME280;64102;48.628;9.002;2023-04-09T08:42:53;96725.16;;;11.18;52.15
75521;BME280;64102;48.628;9.002;2023-04-09T08:45:20;96729.31;;;10.89;51.91
75521;BME280;64102;48.628;9.002;2023-04-09T08:47:47;96732.94;;;10.86;52.23
75521;BME280;64102;48.628;9.002;2023-04-09T08:50:13;96732.91;;;10.97;51.14
75521;BME280;64102;48.628;9.002;2023-04-09T08:52:39;96736.53;;;13.99;44.08
75521;BME280;64102;48.628;9.002;2023-04-09T08:55:04;96721.03;;;14.34;39.35
75521;BME280;64102;48.628;9.002;2023-04-09T08:57:36;96736.28;;;11.39;42.67
75521;BME280;64102;48.628;9.002;2023-04-09T09:00:02;96733.59;;;10.67;46.96
75521;BME280;64102;48.628;9.002;2023-04-09T09:02:27;96737.28;;;10.22;49.47
75521;BME280;64102;48.628;9.002;2023-04-09T09:04:53;96740.88;;;9.53;49.12
75521;BME280;64102;48.628;9.002;2023-04-09T09:07:23;96738.91;;;9.56;52.34
75521;BME280;64102;48.628;9.002;2023-04-09T09:09:57;96748.50;;;9.54;48.08
75521;BME280;64102;48.628;9.002;2023-04-09T09:12:34;96751.44;;;9.04;51.49
75521;BME280;64102;48.628;9.002;2023-04-09T09:15:01;96740.28;;;9.27;50.52
75521;BME280;64102;48.628;9.002;2023-04-09T09:17:26;96745.28;;;9.06;51.72
75521;BME280;64102;48.628;9.002;2023-04-09T09:19:52;96741.06;;;9.16;49.71
75521;BME280;64102;48.628;9.002;2023-04-09T09:22:17;96739.69;;;9.34;53.17
75521;BME280;64102;48.628;9.002;2023-04-09T09:24:47;96745.97;;;10.53;50.01
75521;BME280;64102;48.628;9.002;2023-04-09T09:27:34;96743.97;;;13.28;41.99
75521;BME280;64102;48.628;9.002;2023-04-09T09:30:07;96743.66;;;11.44;47.87
75521;BME280;64102;48.628;9.002;2023-04-09T09:32:35;96745.84;;;10.86;47.14
75521;BME280;64102;48.628;9.002;2023-04-09T09:35:01;96743.25;;;10.54;46.21
75521;BME280;64102;48.628;9.002;2023-04-09T09:37:28;96741.97;;;10.17;48.39
75521;BME280;64102;48.628;9.002;2023-04-09T09:39:53;96747.69;;;10.63;48.59
75521;BME280;64102;48.628;9.002;2023-04-09T09:42:19;96750.34;;;10.41;47.73
75521;BME280;64102;48.628;9.002;2023-04-09T09:44:45;96739.38;;;10.17;51.04
75521;BME280;64102;48.628;9.002;2023-04-09T09:47:11;96728.50;;;10.45;49.45
75521;BME280;64102;48.628;9.002;2023-04-09T09:49:40;96744.69;;;11.11;47.58
75521;BME280;64102;48.628;9.002;2023-04-09T09:52:08;96743.81;;;12.91;44.94
75521;BME280;64102;48.628;9.002;2023-04-09T09:54:46;96737.75;;;11.32;46.08
75521;BME280;64102;48.628;9.002;2023-04-09T09:57:15;96739.41;;;10.81;47.49
75521;BME280;64102;48.628;9.002;2023-04-09T09:59:49;96742.66;;;10.08;49.20
75521;BME280;64102;48.628;9.002;2023-04-09T10:02:21;96751.16;;;10.42;51.13
75521;BME280;64102;48.628;9.002;2023-04-09T10:04:49;96759.41;;;10.24;52.40
75521;BME280;64102;48.628;9.002;2023-04-09T10:07:19;96750.50;;;10.28;50.37
75521;BME280;64102;48.628;9.002;2023-04-09T10:09:48;96746.50;;;10.36;50.06
75521;BME280;64102;48.628;9.002;2023-04-09T10:12:15;96757.16;;;9.86;45.49
75521;BME280;64102;48.628;9.002;2023-04-09T10:14:41;96750.56;;;9.27;47.56
75521;BME280;64102;48.628;9.002;2023-04-09T10:17:06;96745.19;;;9.30;48.89
75521;BME280;64102;48.628;9.002;2023-04-09T10:19:51;96745.66;;;9.24;49.79
75521;BME280;64102;48.628;9.002;2023-04-09T10:22:22;96745.78;;;9.33;49.90
75521;BME280;64102;48.628;9.002;2023-04-09T10:24:50;96746.59;;;9.34;48.85
75521;BME280;64102;48.628;9.002;2023-04-09T10:27:16;96742.19;;;9.58;50.88
75521;BME280;64102;48.628;9.002;2023-04-09T10:29:47;96749.56;;;9.96;49.70
75521;BME280;64102;48.628;9.002;2023-04-09T10:32:18;96741.47;;;9.78;48.63
75521;BME280;64102;48.628;9.002;2023-04-09T10:34:49;96737.72;;;10.70;46.51
75521;BME280;64102;48.628;9.002;2023-04-09T10:37:26;96741.03;;;10.61;50.11
75521;BME280;64102;48.628;9.002;2023-04-09T10:39:52;96747.94;;;10.60;47.13
75521;BME280;64102;48.628;9.002;2023-04-09T10:42:20;96729.03;;;10.71;45.46
75521;BME280;64102;48.628;9.002;2023-04-09T10:45:04;96747.06;;;11.03;43.29
75521;BME280;64102;48.628;9.002;2023-04-09T10:47:32;96745.91;;;12.19;40.59
75521;BME280;64102;48.628;9.002;2023-04-09T10:50:13;96744.22;;;13.90;37.49
75521;BME280;64102;48.628;9.002;2023-04-09T10:52:40;96735.41;;;14.91;34.87
75521;BME280;64102;48.628;9.002;2023-04-09T10:55:09;96734.59;;;13.64;35.36
75521;BME280;64102;48.628;9.002;2023-04-09T10:57:35;96733.28;;;12.35;38.28
75521;BME280;64102;48.628;9.002;2023-04-09T11:00:00;96734.34;;;12.13;38.75
75521;BME280;64102;48.628;9.002;2023-04-09T11:02:53;96723.69;;;14.52;34.81
75521;BME280;64102;48.628;9.002;2023-04-09T11:08:03;96728.88;;;13.70;35.98
75521;BME280;64102;48.628;9.002;2023-04-09T11:10:30;96725.59;;;11.23;40.32
75521;BME280;64102;48.628;9.002;2023-04-09T11:12:56;96724.47;;;10.63;39.75
75521;BME280;64102;48.628;9.002;2023-04-09T11:15:21;96728.56;;;10.12;40.39
75521;BME280;64102;48.628;9.002;2023-04-09T11:17:47;96724.91;;;10.37;42.42
75521;BME280;64102;48.628;9.002;2023-04-09T11:20:15;96729.59;;;10.31;42.05
75521;BME280;64102;48.628;9.002;2023-04-09T11:22:40;96726.84;;;9.79;43.68
75521;BME280;64102;48.628;9.002;2023-04-09T11:25:06;96728.09;;;10.18;44.76
75521;BME280;64102;48.628;9.002;2023-04-09T11:27:42;96721.34;;;10.17;45.46
75521;BME280;64102;48.628;9.002;2023-04-09T11:30:08;96723.06;;;10.05;44.75
75521;BME280;64102;48.628;9.002;2023-04-09T11:32:34;96725.47;;;10.40;43.12
75521;BME280;64102;48.628;9.002;2023-04-09T11:35:00;96725.94;;;10.45;45.00
75521;BME280;64102;48.628;9.002;2023-04-09T11:37:25;96723.88;;;10.71;45.86
75521;BME280;64102;48.628;9.002;2023-04-09T11:39:52;96725.59;;;11.23;43.68
75521;BME280;64102;48.628;9.002;2023-04-09T11:42:19;96715.94;;;11.25;43.36
75521;BME280;64102;48.628;9.002;2023-04-09T11:44:46;96725.25;;;11.88;41.63
75521;BME280;64102;48.628;9.002;2023-04-09T11:47:13;96723.34;;;12.40;40.29
75521;BME280;64102;48.628;9.002;2023-04-09T11:49:44;96726.34;;;14.60;36.63
75521;BME280;64102;48.628;9.002;2023-04-09T11:52:11;96717.66;;;17.79;30.55
75521;BME280;64102;48.628;9.002;2023-04-09T11:54:37;96715.38;;;18.85;29.13
75521;BME280;64102;48.628;9.002;2023-04-09T11:57:02;96723.69;;;15.74;29.43
75521;BME280;64102;48.628;9.002;2023-04-09T11:59:28;96718.38;;;15.14;31.64
75521;BME280;64102;48.628;9.002;2023-04-09T12:01:56;96726.97;;;13.53;35.18
75521;BME280;64102;48.628;9.002;2023-04-09T12:04:22;96722.56;;;12.78;37.91
75521;BME280;64102;48.628;9.002;2023-04-09T12:06:47;96715.94;;;12.16;39.40
75521;BME280;64102;48.628;9.002;2023-04-09T12:09:13;96721.44;;;11.83;40.84
75521;BME280;64102;48.628;9.002;2023-04-09T12:11:42;96726.56;;;11.52;41.35
75521;BME280;64102;48.628;9.002;2023-04-09T12:14:14;96723.50;;;11.38;40.18
75521;BME280;64102;48.628;9.002;2023-04-09T12:16:43;96722.69;;;11.37;40.73
75521;BME280;64102;48.628;9.002;2023-04-09T12:19:12;96717.13;;;12.71;37.58
75521;BME280;64102;48.628;9.002;2023-04-09T12:21:51;96711.59;;;13.88;37.70
75521;BME280;64102;48.628;9.002;2023-04-09T12:24:22;96720.56;;;12.13;41.24
75521;BME280;64102;48.628;9.002;2023-04-09T12:26:48;96716.22;;;11.52;41.90
75521;BME280;64102;48.628;9.002;2023-04-09T12:29:15;96703.22;;;11.33;43.37
75521;BME280;64102;48.628;9.002;2023-04-09T12:31:42;96700.56;;;12.24;42.46
75521;BME280;64102;48.628;9.002;2023-04-09T12:34:08;96703.75;;;12.66;40.34
75521;BME280;64102;48.628;9.002;2023-04-09T12:36:33;96705.66;;;14.68;35.54
75521;BME280;64102;48.628;9.002;2023-04-09T12:38:59;96694.00;;;15.33;32.63
75521;BME280;64102;48.628;9.002;2023-04-09T12:41:25;96691.00;;;16.22;32.40
75521;BME280;64102;48.628;9.002;2023-04-09T12:43:50;96686.91;;;16.61;30.91
75521;BME280;64102;48.628;9.002;2023-04-09T12:46:19;96681.66;;;15.61;31.52
75521;BME280;64102;48.628;9.002;2023-04-09T12:48:45;96682.69;;;17.17;30.06
75521;BME280;64102;48.628;9.002;2023-04-09T12:51:11;96674.53;;;16.63;30.83
75521;BME280;64102;48.628;9.002;2023-04-09T12:53:36;96683.50;;;15.68;32.82
75521;BME280;64102;48.628;9.002;2023-04-09T12:56:02;96679.00;;;16.29;30.99
75521;BME280;64102;48.628;9.002;2023-04-09T12:58:27;96678.94;;;17.27;29.44
75521;BME280;64102;48.628;9.002;2023-04-09T13:00:53;96678.28;;;16.69;30.59
75521;BME280;64102;48.628;9.002;2023-04-09T13:03:21;96666.53;;;15.31;33.93
75521;BME280;64102;48.628;9.002;2023-04-09T13:05:47;96669.72;;;15.24;34.42
75521;BME280;64102;48.628;9.002;2023-04-09T13:08:13;96667.09;;;16.18;32.07
75521;BME280;64102;48.628;9.002;2023-04-09T13:10:38;96660.38;;;16.07;33.91
75521;BME280;64102;48.628;9.002;2023-04-09T13:13:03;96654.97;;;17.16;32.75
75521;BME280;64102;48.628;9.002;2023-04-09T13:15:30;96654.66;;;18.21;32.03